createdAt,value
2018-01-24T00:02:05.326Z,91.80
2018-01-24T00:04:33.430Z,91.60
2018-01-24T00:07:02.056Z,92.10
2018-01-24T00:09:30.250Z,92.80
2018-01-24T00:11:58.379Z,92.20
2018-01-24T00:14:26.483Z,92.60
2018-01-24T00:16:55.420Z,92.50
2018-01-24T00:19:24.308Z,92.20
2018-01-24T00:21:53.276Z,92.00
2018-01-24T00:24:21.617Z,91.90
2018-01-24T00:26:49.784Z,91.70
2018-01-24T00:29:18.505Z,91.70
2018-01-24T00:31:46.711Z,91.40
2018-01-24T00:34:15.590Z,91.80
2018-01-24T00:36:43.733Z,91.80
2018-01-24T00:39:11.849Z,91.50
2018-01-24T00:41:40.753Z,91.90
2018-01-24T00:44:08.863Z,91.90
2018-01-24T00:46:36.996Z,91.40
2018-01-24T00:49:05.876Z,91.80
2018-01-24T00:51:34.772Z,92.50
2018-01-24T00:54:03.895Z,92.60
2018-01-24T00:56:32.038Z,92.60
2018-01-24T00:59:00.924Z,93.20
2018-01-24T01:01:29.813Z,93.20
2018-01-24T01:03:58.695Z,93.50
2018-01-24T01:06:26.834Z,93.50
2018-01-24T01:08:54.937Z,94.20
2018-01-24T01:11:23.100Z,94.10
2018-01-24T01:13:51.201Z,94.30
2018-01-24T01:16:20.665Z,94.20
2018-01-24T01:18:48.759Z,94.20
2018-01-24T01:21:16.968Z,93.80
2018-01-24T01:23:45.039Z,93.60
2018-01-24T01:26:13.178Z,93.70
2018-01-24T01:28:41.735Z,94.30
2018-01-24T01:31:10.351Z,94.20
2018-01-24T01:33:38.459Z,93.60
2018-01-24T01:36:06.631Z,93.50
2018-01-24T01:38:34.742Z,93.50
2018-01-24T01:41:03.332Z,93.50
2018-01-24T01:43:31.482Z,93.70
2018-01-24T01:45:59.613Z,93.70
2018-01-24T01:48:32.198Z,93.20
2018-01-24T01:51:01.096Z,93.20
2018-01-24T01:53:29.220Z,93.10
2018-01-24T01:55:57.347Z,93.30
2018-01-24T01:58:25.462Z,93.60
2018-01-24T02:00:53.603Z,93.10
2018-01-24T02:03:21.707Z,93.30
2018-01-24T02:05:49.860Z,93.20
2018-01-24T02:08:17.971Z,93.00
2018-01-24T02:10:46.117Z,93.00
2018-01-24T02:13:14.232Z,93.00
2018-01-24T02:15:42.331Z,92.80
2018-01-24T02:18:10.467Z,93.00
2018-01-24T02:20:38.570Z,92.90
2018-01-24T02:23:06.708Z,93.10
2018-01-24T02:25:34.818Z,93.20
2018-01-24T02:28:04.574Z,92.90
2018-01-24T02:30:32.697Z,92.90
2018-01-24T02:33:01.596Z,92.70
2018-01-24T02:35:29.702Z,92.70
2018-01-24T02:37:57.842Z,93.20
2018-01-24T02:40:25.962Z,93.30
2018-01-24T02:42:54.098Z,93.50
2018-01-24T02:45:22.211Z,93.60
2018-01-24T02:47:50.347Z,93.50
2018-01-24T02:50:18.451Z,93.50
2018-01-24T02:52:46.600Z,93.50
2018-01-24T02:55:14.698Z,93.30
2018-01-24T02:57:42.849Z,93.10
2018-01-24T03:00:10.954Z,93.00
2018-01-24T03:02:39.098Z,93.10
2018-01-24T03:05:07.215Z,93.00
2018-01-24T03:07:35.351Z,92.80
2018-01-24T03:10:03.462Z,93.40
2018-01-24T03:12:31.595Z,93.40
2018-01-24T03:14:59.711Z,93.20
2018-01-24T03:17:27.848Z,93.40
2018-01-24T03:19:55.967Z,93.30
2018-01-24T03:22:24.859Z,93.70
2018-01-24T03:24:53.722Z,93.70
2018-01-24T03:27:21.852Z,93.60
2018-01-24T03:29:49.963Z,93.90
2018-01-24T03:32:18.100Z,93.70
2018-01-24T03:34:46.211Z,93.60
2018-01-24T03:37:14.342Z,93.60
2018-01-24T03:39:42.442Z,93.50
2018-01-24T03:42:10.575Z,93.40
2018-01-24T03:44:38.686Z,93.50
2018-01-24T03:47:06.821Z,93.60
2018-01-24T03:49:34.932Z,93.80
2018-01-24T03:52:03.067Z,94.00
2018-01-24T03:54:31.935Z,94.10
2018-01-24T03:57:00.844Z,94.10
2018-01-24T03:59:29.717Z,93.90
2018-01-24T04:01:57.868Z,93.90
2018-01-24T04:04:25.982Z,93.80
2018-01-24T04:06:54.876Z,94.10
2018-01-24T04:09:22.986Z,94.10
2018-01-24T04:11:51.118Z,93.80
2018-01-24T04:14:20.435Z,93.50
2018-01-24T04:16:48.575Z,93.50
2018-01-24T04:19:17.446Z,93.30
2018-01-24T04:21:45.595Z,93.30
2018-01-24T04:24:13.698Z,93.30
2018-01-24T04:26:41.843Z,93.30
2018-01-24T04:29:09.946Z,93.10
2018-01-24T04:31:38.045Z,93.20
2018-01-24T04:34:06.927Z,92.90
2018-01-24T04:36:35.065Z,92.90
2018-01-24T04:39:03.204Z,92.90
2018-01-24T04:41:31.312Z,92.90
2018-01-24T04:43:59.441Z,93.20
2018-01-24T04:46:27.876Z,93.20
2018-01-24T04:48:56.003Z,93.80
2018-01-24T04:51:24.122Z,93.50
2018-01-24T04:53:52.239Z,93.40
2018-01-24T04:56:20.342Z,93.50
2018-01-24T04:58:48.536Z,93.60
2018-01-24T05:01:16.633Z,93.60
2018-01-24T05:03:45.528Z,93.40
2018-01-24T05:06:14.864Z,93.40
2018-01-24T05:08:43.019Z,93.40
2018-01-24T05:11:11.146Z,93.30
2018-01-24T05:13:39.266Z,93.20
2018-01-24T05:16:08.151Z,93.10
2018-01-24T05:18:37.041Z,93.00
2018-01-24T05:21:20.854Z,92.80
2018-01-24T05:23:48.984Z,92.80
2018-01-24T05:26:17.122Z,92.70
2018-01-24T05:28:46.029Z,93.00
2018-01-24T05:31:14.165Z,92.60
2018-01-24T05:33:42.290Z,92.60
2018-01-24T05:36:10.496Z,93.00
2018-01-24T05:38:38.631Z,92.40
2018-01-24T05:41:06.754Z,92.60
2018-01-24T05:43:34.875Z,92.50
2018-01-24T05:46:02.990Z,92.70
2018-01-24T05:48:31.120Z,92.50
2018-01-24T05:50:59.233Z,92.60
2018-01-24T05:53:27.858Z,92.50
2018-01-24T05:55:56.022Z,92.50
2018-01-24T05:58:24.151Z,92.60
2018-01-24T06:00:52.264Z,92.40
2018-01-24T06:03:20.398Z,92.20
2018-01-24T06:05:48.502Z,92.00
2018-01-24T06:08:16.656Z,91.90
2018-01-24T06:10:44.760Z,91.80
2018-01-24T06:13:12.891Z,91.80
2018-01-24T06:15:40.991Z,91.80
2018-01-24T06:18:09.120Z,91.90
2018-01-24T06:20:37.234Z,91.80
2018-01-24T06:23:05.414Z,91.60
2018-01-24T06:25:33.582Z,90.90
2018-01-24T06:28:01.720Z,91.10
2018-01-24T06:30:29.834Z,90.90
2018-01-24T06:32:57.974Z,90.90
2018-01-24T06:35:26.099Z,90.90
2018-01-24T06:37:54.266Z,90.90
2018-01-24T06:40:22.374Z,91.20
2018-01-24T06:42:50.508Z,91.70
2018-01-24T06:45:18.634Z,92.00
2018-01-24T06:47:47.259Z,92.20
2018-01-24T06:50:15.361Z,92.10
2018-01-24T06:52:44.266Z,91.50
2018-01-24T06:57:41.775Z,91.10
2018-01-24T07:00:09.895Z,91.30
2018-01-24T07:02:38.888Z,91.40
2018-01-24T07:05:06.995Z,92.00
2018-01-24T07:07:35.127Z,91.50
2018-01-24T07:10:03.503Z,91.10
2018-01-24T07:12:43.462Z,91.80
2018-01-24T07:15:11.563Z,91.50
2018-01-24T07:17:39.701Z,91.30
2018-01-24T07:20:08.706Z,91.60
2018-01-24T07:22:37.613Z,91.80
2018-01-24T07:25:06.496Z,91.70
2018-01-24T07:27:35.376Z,91.60
2018-01-24T07:30:03.513Z,91.60
2018-01-24T07:32:31.618Z,91.90
2018-01-24T07:34:59.762Z,92.00
2018-01-24T07:37:27.870Z,92.10
2018-01-24T07:39:56.776Z,91.90
2018-01-24T07:42:25.650Z,91.70
2018-01-24T07:44:54.544Z,91.60
2018-01-24T07:47:23.424Z,91.80
2018-01-24T07:49:51.555Z,91.80
2018-01-24T07:52:19.673Z,91.50
2018-01-24T07:54:48.944Z,91.40
2018-01-24T07:57:17.056Z,91.70
2018-01-24T07:59:45.958Z,91.60
2018-01-24T08:02:14.814Z,91.40
2018-01-24T08:04:42.947Z,91.30
2018-01-24T08:07:11.054Z,91.70
2018-01-24T08:09:39.203Z,91.60
2018-01-24T08:12:07.319Z,91.60
2018-01-24T08:14:35.450Z,91.60
2018-01-24T08:17:03.564Z,91.40
2018-01-24T08:19:31.713Z,91.40
2018-01-24T08:21:59.805Z,91.60
2018-01-24T08:24:27.938Z,91.70
2018-01-24T08:26:56.063Z,91.60
2018-01-24T08:29:24.967Z,91.10
2018-01-24T08:31:53.083Z,91.00
2018-01-24T08:34:21.227Z,91.30
2018-01-24T08:36:49.350Z,91.40
2018-01-24T08:39:17.485Z,91.60
2018-01-24T08:41:45.601Z,91.40
2018-01-24T08:44:13.747Z,91.40
2018-01-24T08:46:41.863Z,91.70
2018-01-24T08:49:11.239Z,91.80
2018-01-24T08:51:40.694Z,91.30
2018-01-24T08:54:08.836Z,91.60
2018-01-24T08:56:36.946Z,91.20
2018-01-24T08:59:05.157Z,91.20
2018-01-24T09:01:50.722Z,91.50
2018-01-24T09:04:36.539Z,91.30
2018-01-24T09:07:23.100Z,91.10
2018-01-24T09:10:08.998Z,91.30
2018-01-24T09:12:54.686Z,91.30
2018-01-24T09:15:40.404Z,91.30
2018-01-24T09:18:25.990Z,91.30
2018-01-24T09:21:11.884Z,90.90
2018-01-24T09:23:42.486Z,91.20
2018-01-24T09:26:10.639Z,91.00
2018-01-24T09:28:38.751Z,90.60
2018-01-24T09:33:36.245Z,90.20
2018-01-24T09:36:04.387Z,90.50
2018-01-24T09:38:32.519Z,90.20
2018-01-24T09:41:00.652Z,89.70
2018-01-24T09:43:28.765Z,89.50
2018-01-24T09:45:57.214Z,89.90
2018-01-24T09:48:25.314Z,90.00
2018-01-24T09:50:53.451Z,90.10
2018-01-24T09:53:21.566Z,90.20
2018-01-24T09:55:49.704Z,90.10
2018-01-24T09:58:17.854Z,90.20
2018-01-24T10:00:46.008Z,90.20
2018-01-24T10:03:14.115Z,89.80
2018-01-24T10:05:42.262Z,90.00
2018-01-24T10:08:10.383Z,90.00
2018-01-24T10:10:39.257Z,90.30
2018-01-24T10:13:07.398Z,90.30
2018-01-24T10:15:35.522Z,90.30
2018-01-24T10:18:04.419Z,90.30
2018-01-24T10:20:33.285Z,90.20
2018-01-24T10:23:01.425Z,90.20
2018-01-24T10:25:29.540Z,90.20
2018-01-24T10:27:57.663Z,90.10
2018-01-24T10:30:25.770Z,90.00
2018-01-24T10:32:53.899Z,90.10
2018-01-24T10:35:22.014Z,89.90
2018-01-24T10:37:50.151Z,90.00
2018-01-24T10:40:18.267Z,89.90
2018-01-24T10:42:46.399Z,89.10
2018-01-24T10:45:14.502Z,90.00
2018-01-24T10:47:42.636Z,89.00
2018-01-24T10:50:10.784Z,89.20
2018-01-24T10:52:39.715Z,89.30
2018-01-24T10:55:08.272Z,88.50
2018-01-24T10:57:36.408Z,89.10
2018-01-24T11:00:04.788Z,88.40
2018-01-24T11:02:36.898Z,88.60
2018-01-24T11:05:05.119Z,89.20
2018-01-24T11:07:33.277Z,89.10
2018-01-24T11:10:01.378Z,88.50
2018-01-24T11:14:58.880Z,87.80
2018-01-24T11:17:26.998Z,87.80
2018-01-24T11:19:55.135Z,87.70
2018-01-24T11:22:23.250Z,87.40
2018-01-24T11:24:51.393Z,87.20
2018-01-24T11:27:19.502Z,87.20
2018-01-24T11:29:47.635Z,86.70
2018-01-24T11:32:15.746Z,86.40
2018-01-24T11:34:43.873Z,87.30
2018-01-24T11:37:11.982Z,87.30
2018-01-24T11:39:41.248Z,86.30
2018-01-24T11:42:09.403Z,85.90
2018-01-24T11:44:38.291Z,85.70
2018-01-24T11:47:07.174Z,86.00
2018-01-24T11:49:36.072Z,86.20
2018-01-24T11:52:04.942Z,86.10
2018-01-24T11:54:33.087Z,86.10
2018-01-24T11:57:01.503Z,86.70
2018-01-24T11:59:29.703Z,85.70
2018-01-24T12:01:58.578Z,86.40
2018-01-24T12:04:27.494Z,86.80
2018-01-24T12:09:27.555Z,84.80
2018-01-24T12:11:55.675Z,85.40
2018-01-24T12:14:24.550Z,85.60
2018-01-24T12:16:52.674Z,84.50
2018-01-24T12:19:20.787Z,83.60
2018-01-24T12:21:48.929Z,84.20
2018-01-24T12:24:17.036Z,84.50
2018-01-24T12:26:45.168Z,84.10
2018-01-24T12:29:13.268Z,83.60
2018-01-24T12:31:41.388Z,84.60
2018-01-24T12:34:09.502Z,84.20
2018-01-24T12:36:37.639Z,83.80
2018-01-24T12:39:06.223Z,83.40
2018-01-24T12:41:34.354Z,84.10
2018-01-24T12:44:02.450Z,84.20
2018-01-24T12:49:00.736Z,84.90
2018-01-24T12:51:28.935Z,84.20
2018-01-24T12:53:57.808Z,84.60
2018-01-24T12:56:26.714Z,85.00
2018-01-24T12:58:54.829Z,85.00
2018-01-24T13:01:22.967Z,84.80
2018-01-24T13:03:51.075Z,85.60
2018-01-24T13:06:19.216Z,85.50
2018-01-24T13:08:47.325Z,85.90
2018-01-24T13:11:15.439Z,85.90
2018-01-24T13:13:44.342Z,86.30
2018-01-24T13:16:12.468Z,86.30
2018-01-24T13:18:40.599Z,86.80
2018-01-24T13:21:08.719Z,86.30
2018-01-24T13:23:36.859Z,85.50
2018-01-24T13:26:04.968Z,85.40
2018-01-24T13:28:33.106Z,84.70
2018-01-24T13:31:01.240Z,84.90
2018-01-24T13:33:30.144Z,85.50
2018-01-24T13:35:58.285Z,85.40
2018-01-24T13:38:26.419Z,84.80
2018-01-24T13:40:54.534Z,85.30
2018-01-24T13:43:22.666Z,85.30
2018-01-24T13:45:50.783Z,85.10
2018-01-24T13:48:18.930Z,85.20
2018-01-24T13:50:47.046Z,85.00
2018-01-24T13:53:15.939Z,84.70
2018-01-24T13:55:44.874Z,84.70
2018-01-24T13:58:13.000Z,84.70
2018-01-24T14:00:41.882Z,84.80
2018-01-24T14:03:11.219Z,85.20
2018-01-24T14:05:39.315Z,85.10
2018-01-24T14:08:07.453Z,85.00
2018-01-24T14:10:35.561Z,85.00
2018-01-24T14:13:04.158Z,85.20
2018-01-24T14:15:32.731Z,85.20
2018-01-24T14:18:01.326Z,85.20
2018-01-24T14:20:29.436Z,85.40
2018-01-24T14:22:58.880Z,85.30
2018-01-24T14:25:27.009Z,85.30
2018-01-24T14:27:55.943Z,86.00
2018-01-24T14:30:24.089Z,85.80
2018-01-24T14:32:52.253Z,85.10
2018-01-24T14:35:21.118Z,86.30
2018-01-24T14:37:49.263Z,85.80
2018-01-24T14:40:17.419Z,86.10
2018-01-24T14:42:45.555Z,86.30
2018-01-24T14:45:13.661Z,86.10
2018-01-24T14:47:43.131Z,86.60
2018-01-24T14:50:12.099Z,86.50
2018-01-24T14:52:40.223Z,85.70
2018-01-24T14:55:08.830Z,86.50
2018-01-24T15:00:07.575Z,87.60
2018-01-24T15:02:38.995Z,87.60
2018-01-24T15:05:08.393Z,86.90
2018-01-24T15:07:37.686Z,86.90
2018-01-24T15:10:07.039Z,87.70
2018-01-24T15:12:35.168Z,87.60
2018-01-24T15:15:04.037Z,87.90
2018-01-24T15:17:32.159Z,87.90
2018-01-24T15:20:00.266Z,87.70
2018-01-24T15:22:29.907Z,88.10
2018-01-24T15:24:59.206Z,87.90
2018-01-24T15:27:28.082Z,87.70
2018-01-24T15:29:56.231Z,87.40
2018-01-24T15:32:24.344Z,87.30
2018-01-24T15:34:53.254Z,87.80
2018-01-24T15:37:21.364Z,87.70
2018-01-24T15:39:49.494Z,88.10
2018-01-24T15:42:18.360Z,87.70
2018-01-24T15:44:47.285Z,88.20
2018-01-24T15:47:15.395Z,87.80
2018-01-24T15:49:43.531Z,88.40
2018-01-24T15:52:11.630Z,88.40
2018-01-24T15:54:39.769Z,87.10
2018-01-24T15:59:37.265Z,87.00
2018-01-24T16:02:05.398Z,87.60
2018-01-24T16:04:33.533Z,87.30
2018-01-24T16:07:01.631Z,86.90
2018-01-24T16:12:00.622Z,86.00
2018-01-24T16:14:29.269Z,86.90
2018-01-24T16:16:57.374Z,86.70
2018-01-24T16:19:29.521Z,86.10
2018-01-24T16:21:57.623Z,85.90
2018-01-24T16:24:25.757Z,85.80
2018-01-24T16:26:55.002Z,85.30
2018-01-24T16:29:23.144Z,85.80
2018-01-24T16:31:51.238Z,86.40
2018-01-24T16:34:19.362Z,85.30
2018-01-24T16:36:47.462Z,85.10
2018-01-24T16:39:15.592Z,84.80
2018-01-24T16:41:44.753Z,84.80
2018-01-24T16:44:14.494Z,85.50
2018-01-24T16:46:43.354Z,85.70
2018-01-24T16:49:11.474Z,85.60
2018-01-24T16:51:39.568Z,85.10
2018-01-24T16:54:07.685Z,85.10
2018-01-24T16:56:35.814Z,85.20
2018-01-24T16:59:04.436Z,85.30
2018-01-24T17:01:32.617Z,85.00
2018-01-24T17:04:00.749Z,85.10
2018-01-24T17:06:28.862Z,84.70
2018-01-24T17:08:56.997Z,84.80
2018-01-24T17:11:25.102Z,84.40
2018-01-24T17:13:53.233Z,85.10
2018-01-24T17:16:21.351Z,84.70
2018-01-24T17:18:49.481Z,84.80
2018-01-24T17:21:17.570Z,84.80
2018-01-24T17:23:45.693Z,84.60
2018-01-24T17:26:14.580Z,85.10
2018-01-24T17:28:43.469Z,85.00
2018-01-24T17:31:12.333Z,84.70
2018-01-24T17:33:40.457Z,84.70
2018-01-24T17:36:08.583Z,83.50
2018-01-24T17:38:36.712Z,84.20
2018-01-24T17:41:04.802Z,84.20
2018-01-24T17:43:32.917Z,84.80
2018-01-24T17:46:01.022Z,84.20
2018-01-24T17:48:29.145Z,84.90
2018-01-24T17:50:57.259Z,84.20
2018-01-24T17:53:26.142Z,85.10
2018-01-24T17:55:55.001Z,84.60
2018-01-24T17:58:23.142Z,84.60
2018-01-24T18:00:51.402Z,84.90
2018-01-24T18:03:20.566Z,84.90
2018-01-24T18:05:48.695Z,85.00
2018-01-24T18:08:16.789Z,84.60
2018-01-24T18:10:44.946Z,83.70
2018-01-24T18:13:13.077Z,83.70
2018-01-24T18:15:42.082Z,84.50
2018-01-24T18:18:10.247Z,84.60
2018-01-24T18:20:38.377Z,85.00
2018-01-24T18:23:06.467Z,84.70
2018-01-24T18:25:34.675Z,85.10
2018-01-24T18:28:03.104Z,85.10
2018-01-24T18:30:31.287Z,85.00
2018-01-24T18:32:59.393Z,84.70
2018-01-24T18:35:27.538Z,85.30
2018-01-24T18:37:55.650Z,84.50
2018-01-24T18:40:23.929Z,84.50
2018-01-24T18:42:52.058Z,84.80
2018-01-24T18:45:20.171Z,85.00
2018-01-24T18:47:48.278Z,85.60
2018-01-24T18:50:16.397Z,84.60
2018-01-24T18:52:45.269Z,85.20
2018-01-24T18:55:13.410Z,84.60
2018-01-24T18:57:41.559Z,85.10
2018-01-24T19:00:09.671Z,84.30
2018-01-24T19:02:41.450Z,84.90
2018-01-24T19:05:09.587Z,84.70
2018-01-24T19:07:38.461Z,85.40
2018-01-24T19:10:06.683Z,85.40
2018-01-24T19:12:34.796Z,85.10
2018-01-24T19:15:02.918Z,85.00
2018-01-24T19:17:31.018Z,85.00
2018-01-24T19:19:59.914Z,84.70
2018-01-24T19:22:28.778Z,84.90
2018-01-24T19:24:56.941Z,84.90
2018-01-24T19:27:25.042Z,84.40
2018-01-24T19:29:54.043Z,84.20
2018-01-24T19:32:22.925Z,84.20
2018-01-24T19:34:51.053Z,83.30
2018-01-24T19:37:19.177Z,84.80
2018-01-24T19:39:48.067Z,84.00
2018-01-24T19:42:17.281Z,83.70
2018-01-24T19:44:45.467Z,83.70
2018-01-24T19:47:13.562Z,83.70
2018-01-24T19:49:41.946Z,84.10
2018-01-24T19:52:10.830Z,83.60
2018-01-24T19:54:39.094Z,83.50
2018-01-24T19:57:07.518Z,82.80
2018-01-24T19:59:38.197Z,82.50
2018-01-24T20:02:06.407Z,82.50
2018-01-24T20:04:34.520Z,82.30
2018-01-24T20:07:03.499Z,83.00
2018-01-24T20:09:32.301Z,83.70
2018-01-24T20:12:00.557Z,83.00
2018-01-24T20:14:28.697Z,82.20
2018-01-24T20:16:57.057Z,83.00
2018-01-24T20:19:25.197Z,83.10
2018-01-24T20:21:53.832Z,82.30
2018-01-24T20:24:22.074Z,81.90
2018-01-24T20:26:51.247Z,81.80
2018-01-24T20:29:19.676Z,81.80
2018-01-24T20:31:47.841Z,81.70
2018-01-24T20:34:15.946Z,82.20
2018-01-24T20:36:44.074Z,82.30
2018-01-24T20:39:13.672Z,82.80
2018-01-24T20:41:42.576Z,81.90
2018-01-24T20:44:11.471Z,82.50
2018-01-24T20:46:40.551Z,82.30
2018-01-24T20:49:09.418Z,82.20
2018-01-24T20:51:37.908Z,82.20
2018-01-24T20:54:06.141Z,82.00
2018-01-24T20:56:34.787Z,83.20
2018-01-24T20:59:05.005Z,82.20
2018-01-24T21:01:34.085Z,82.50
2018-01-24T21:04:03.015Z,81.70
2018-01-24T21:06:31.267Z,81.40
2018-01-24T21:08:59.450Z,82.20
2018-01-24T21:11:27.641Z,82.10
2018-01-24T21:13:56.917Z,82.00
2018-01-24T21:16:25.039Z,82.20
2018-01-24T21:18:53.147Z,82.20
2018-01-24T21:21:21.284Z,82.10
2018-01-24T21:23:49.396Z,82.10
2018-01-24T21:26:17.522Z,81.70
2018-01-24T21:28:53.294Z,82.00
2018-01-24T21:31:33.349Z,82.50
2018-01-24T21:34:24.114Z,82.40
2018-01-24T21:36:58.010Z,81.70
2018-01-24T21:39:26.873Z,81.70
2018-01-24T21:41:55.012Z,81.70
2018-01-24T21:44:23.119Z,81.40
2018-01-24T21:46:51.238Z,81.40
2018-01-24T21:49:19.342Z,81.30
2018-01-24T21:51:47.468Z,80.50
2018-01-24T21:54:15.585Z,80.40
2018-01-24T21:56:43.706Z,80.20
2018-01-24T21:59:12.579Z,80.10
2018-01-24T22:01:40.711Z,80.10
2018-01-24T22:04:08.802Z,80.20
2018-01-24T22:06:36.928Z,79.50
2018-01-24T22:09:05.848Z,78.70
2018-01-24T22:11:33.971Z,78.50
2018-01-24T22:14:02.838Z,78.80
2018-01-24T22:16:30.975Z,78.80
2018-01-24T22:18:59.073Z,78.40
2018-01-24T22:21:27.197Z,77.90
2018-01-24T22:23:55.313Z,77.70
2018-01-24T22:26:23.430Z,77.60
2018-01-24T22:28:52.293Z,78.20
2018-01-24T22:31:20.443Z,78.10
2018-01-24T22:33:48.557Z,76.80
2018-01-24T22:36:16.692Z,76.60
2018-01-24T22:38:44.781Z,76.40
2018-01-24T22:41:12.910Z,76.80
2018-01-24T22:43:41.031Z,77.30
2018-01-24T22:46:09.154Z,76.40
2018-01-24T22:48:37.266Z,76.20
2018-01-24T22:51:05.399Z,76.50
2018-01-24T22:53:33.503Z,76.40
2018-01-24T22:56:01.666Z,76.30
2018-01-24T22:58:29.970Z,76.00
2018-01-24T23:00:58.095Z,75.90
2018-01-24T23:03:26.230Z,76.20
2018-01-24T23:05:54.334Z,77.30
2018-01-24T23:08:22.454Z,76.80
2018-01-24T23:10:50.554Z,76.40
2018-01-24T23:13:18.701Z,76.20
2018-01-24T23:15:46.800Z,76.70
2018-01-24T23:18:14.935Z,76.40
2018-01-24T23:20:43.051Z,75.70
2018-01-24T23:23:11.188Z,75.50
2018-01-24T23:25:40.522Z,76.10
2018-01-24T23:28:08.651Z,76.90
2018-01-24T23:30:36.782Z,76.30
2018-01-24T23:33:05.764Z,75.90
2018-01-24T23:35:33.864Z,75.90
2018-01-24T23:38:02.255Z,76.60
2018-01-24T23:40:30.458Z,76.80
2018-01-24T23:42:58.546Z,77.80
2018-01-24T23:45:26.648Z,76.60
2018-01-24T23:47:55.538Z,76.80
2018-01-24T23:50:24.403Z,77.40
2018-01-24T23:52:52.537Z,77.40
2018-01-24T23:55:20.646Z,77.30
2018-01-24T23:57:48.765Z,77.50
